createdAt,value
2022-08-12T00:02:02.589Z,15.70
2022-08-12T00:06:32.897Z,15.40
2022-08-12T00:11:09.799Z,15.22
2022-08-12T00:15:38.237Z,15.20
2022-08-12T00:20:03.706Z,15.24
2022-08-12T00:24:30.076Z,15.32
2022-08-12T00:28:56.142Z,15.32
2022-08-12T00:33:22.251Z,15.32
2022-08-12T00:37:47.132Z,15.34
2022-08-12T00:42:12.782Z,15.38
2022-08-12T00:46:32.707Z,15.37
2022-08-12T00:50:41.651Z,15.41
2022-08-12T00:54:50.932Z,15.32
2022-08-12T00:59:00.080Z,15.19
2022-08-12T01:03:10.312Z,15.15
2022-08-12T01:07:37.446Z,15.15
2022-08-12T01:11:45.133Z,15.17
2022-08-12T01:15:57.408Z,15.20
2022-08-12T01:20:09.337Z,15.17
2022-08-12T01:24:44.211Z,15.17
2022-08-12T01:28:54.478Z,15.18
2022-08-12T01:33:06.413Z,15.23
2022-08-12T01:37:16.078Z,15.28
2022-08-12T01:41:24.809Z,15.36
2022-08-12T01:45:43.283Z,15.40
2022-08-12T01:50:06.591Z,15.42
2022-08-12T01:54:16.193Z,15.41
2022-08-12T01:58:51.166Z,15.34
2022-08-12T02:03:11.243Z,15.35
2022-08-12T02:07:47.517Z,15.23
2022-08-12T02:12:06.119Z,15.12
2022-08-12T02:16:25.544Z,15.01
2022-08-12T02:20:52.759Z,14.90
2022-08-12T02:25:08.719Z,14.76
2022-08-12T02:29:20.391Z,14.71
2022-08-12T02:33:28.133Z,14.73
2022-08-12T02:37:37.238Z,14.75
2022-08-12T02:41:48.799Z,14.67
2022-08-12T02:46:02.187Z,14.65
2022-08-12T02:50:11.652Z,14.72
2022-08-12T02:54:19.141Z,14.85
2022-08-12T02:58:33.075Z,14.95
2022-08-12T03:02:44.241Z,15.03
2022-08-12T03:07:04.859Z,15.14
2022-08-12T03:11:20.973Z,15.21
2022-08-12T03:15:31.675Z,15.24
2022-08-12T03:20:09.101Z,15.31
2022-08-12T03:24:20.124Z,15.36
2022-08-12T03:28:45.179Z,15.40
2022-08-12T03:32:53.663Z,15.44
2022-08-12T03:37:02.587Z,15.45
2022-08-12T03:41:31.181Z,15.42
2022-08-12T03:45:57.917Z,15.46
2022-08-12T03:50:23.675Z,15.46
2022-08-12T03:54:48.634Z,15.45
2022-08-12T03:59:15.163Z,15.47
2022-08-12T04:03:40.907Z,15.47
2022-08-12T04:07:57.810Z,15.52
2022-08-12T04:12:27.211Z,15.56
2022-08-12T04:16:42.347Z,15.62
2022-08-12T04:20:50.392Z,15.61
2022-08-12T04:25:01.611Z,15.59
2022-08-12T04:29:11.009Z,15.56
2022-08-12T04:33:20.627Z,15.57
2022-08-12T04:37:28.290Z,15.55
2022-08-12T04:41:58.633Z,15.54
2022-08-12T04:46:07.882Z,15.56
2022-08-12T04:50:34.013Z,15.63
2022-08-12T04:54:45.347Z,15.71
2022-08-12T04:58:52.871Z,15.85
2022-08-12T05:03:00.550Z,16.03
2022-08-12T05:07:13.030Z,16.23
2022-08-12T05:11:25.025Z,16.42
2022-08-12T05:15:32.449Z,16.60
2022-08-12T05:19:39.707Z,16.79
2022-08-12T05:23:50.880Z,17.02
2022-08-12T05:27:59.825Z,17.21
2022-08-12T05:32:08.025Z,17.43
2022-08-12T05:36:17.658Z,17.60
2022-08-12T05:40:25.069Z,17.71
2022-08-12T05:44:32.664Z,17.81
2022-08-12T05:48:40.257Z,17.96
2022-08-12T05:52:48.592Z,18.14
2022-08-12T05:56:56.107Z,18.39
2022-08-12T06:02:08.310Z,18.57
2022-08-12T06:05:42.838Z,18.79
2022-08-12T06:10:02.140Z,19.11
2022-08-12T06:14:11.696Z,19.31
2022-08-12T06:18:20.963Z,19.55
2022-08-12T06:22:28.899Z,19.87
2022-08-12T06:26:37.229Z,20.22
2022-08-12T06:30:53.071Z,20.43
2022-08-12T06:35:25.026Z,20.71
2022-08-12T06:39:35.146Z,21.00
2022-08-12T06:44:06.829Z,21.28
2022-08-12T06:48:13.484Z,21.48
2022-08-12T06:52:25.452Z,21.74
2022-08-12T06:57:02.421Z,21.99
2022-08-12T07:01:03.861Z,21.96
2022-08-12T07:05:13.330Z,22.12
2022-08-12T07:10:05.527Z,22.37
2022-08-12T07:14:11.781Z,22.75
2022-08-12T07:18:22.358Z,23.11
2022-08-12T07:22:30.237Z,23.16
2022-08-12T07:26:44.376Z,23.32
2022-08-12T07:30:53.280Z,23.57
2022-08-12T07:35:00.980Z,23.68
2022-08-12T07:39:08.989Z,23.80
2022-08-12T07:43:18.584Z,23.81
2022-08-12T07:47:27.063Z,23.60
2022-08-12T07:51:35.596Z,23.72
2022-08-12T07:55:43.031Z,23.90
2022-08-12T07:59:50.572Z,24.10
2022-08-12T08:04:21.859Z,24.27
2022-08-12T08:08:30.295Z,24.30
2022-08-12T08:12:56.375Z,24.31
2022-08-12T08:17:06.736Z,24.38
2022-08-12T08:21:16.008Z,24.39
2022-08-12T08:25:35.876Z,24.38
2022-08-12T08:29:45.753Z,24.35
2022-08-12T08:34:09.316Z,24.45
2022-08-12T08:38:31.808Z,24.50
2022-08-12T08:42:45.984Z,24.46
2022-08-12T08:46:57.419Z,24.60
2022-08-12T08:51:06.230Z,24.75
2022-08-12T08:55:18.762Z,24.84
2022-08-12T08:59:29.976Z,24.91
2022-08-12T09:05:07.788Z,25.04
2022-08-12T09:08:12.051Z,25.16
2022-08-12T09:12:42.416Z,25.21
2022-08-12T09:16:52.493Z,25.21
2022-08-12T09:21:01.890Z,25.11
2022-08-12T09:25:25.253Z,25.12
2022-08-12T09:30:11.291Z,25.32
2022-08-12T09:34:29.145Z,25.27
2022-08-12T09:38:30.206Z,25.14
2022-08-12T09:43:17.730Z,24.94
2022-08-12T09:47:29.665Z,24.77
2022-08-12T09:51:44.096Z,24.79
2022-08-12T09:56:03.835Z,24.81
2022-08-12T10:00:28.375Z,24.82
2022-08-12T10:04:51.670Z,25.15
2022-08-12T10:09:00.276Z,25.42
2022-08-12T10:13:36.094Z,25.53
2022-08-12T10:17:56.717Z,25.52
2022-08-12T10:22:16.791Z,25.46
2022-08-12T10:26:42.790Z,25.45
2022-08-12T10:30:58.337Z,25.43
2022-08-12T10:35:09.244Z,25.67
2022-08-12T10:40:00.287Z,25.99
2022-08-12T10:43:55.820Z,26.21
2022-08-12T10:48:20.614Z,26.34
2022-08-12T10:52:47.565Z,26.07
2022-08-12T10:57:01.374Z,25.84
2022-08-12T11:01:49.793Z,25.67
2022-08-12T11:07:07.468Z,25.49
2022-08-12T11:10:08.026Z,25.48
2022-08-12T11:14:50.374Z,25.75
2022-08-12T11:18:45.570Z,26.07
2022-08-12T11:23:04.060Z,25.98
2022-08-12T11:27:12.241Z,26.04
2022-08-12T11:31:21.205Z,26.07
2022-08-12T11:35:29.631Z,25.85
2022-08-12T11:40:03.559Z,26.02
2022-08-12T11:44:35.260Z,26.13
2022-08-12T11:48:51.410Z,26.33
2022-08-12T11:53:00.714Z,26.63
2022-08-12T11:58:33.794Z,26.82
2022-08-12T12:02:03.198Z,27.07
2022-08-12T12:06:06.556Z,27.29
2022-08-12T12:10:15.747Z,27.43
2022-08-12T12:14:38.005Z,27.62
2022-08-12T12:18:46.667Z,27.88
2022-08-12T12:22:54.277Z,28.12
2022-08-12T12:27:04.057Z,28.45
2022-08-12T12:31:14.664Z,28.53
2022-08-12T12:36:19.904Z,28.28
2022-08-12T12:40:13.164Z,28.18
2022-08-12T12:44:25.824Z,27.96
2022-08-12T12:48:47.003Z,27.71
2022-08-12T12:52:55.856Z,27.49
2022-08-12T12:57:04.794Z,27.27
2022-08-12T13:01:26.855Z,27.08
2022-08-12T13:05:42.278Z,26.95
2022-08-12T13:09:50.574Z,26.96
2022-08-12T13:14:09.034Z,27.29
2022-08-12T13:18:28.558Z,27.73
2022-08-12T13:22:36.429Z,28.21
2022-08-12T13:26:46.536Z,28.54
2022-08-12T13:30:57.863Z,28.55
2022-08-12T13:35:20.081Z,28.58
2022-08-12T13:39:33.476Z,28.56
2022-08-12T13:43:42.047Z,28.30
2022-08-12T13:47:56.643Z,28.18
2022-08-12T13:52:05.141Z,28.15
2022-08-12T13:56:14.750Z,28.46
2022-08-12T14:00:33.971Z,28.75
2022-08-12T14:04:45.812Z,28.70
2022-08-12T14:09:17.581Z,28.71
2022-08-12T14:14:03.444Z,28.62
2022-08-12T14:17:56.806Z,28.40
2022-08-12T14:22:05.479Z,28.27
2022-08-12T14:26:17.104Z,28.18
2022-08-12T14:30:29.168Z,28.35
2022-08-12T14:34:37.742Z,28.56
2022-08-12T14:38:46.326Z,28.57
2022-08-12T14:42:54.824Z,28.67
2022-08-12T14:47:07.852Z,28.84
2022-08-12T14:53:15.317Z,28.94
2022-08-12T15:00:33.202Z,29.07
2022-08-12T15:04:42.098Z,29.19
2022-08-12T15:08:55.734Z,29.32
2022-08-12T15:13:07.612Z,29.17
2022-08-12T15:17:38.235Z,28.95
2022-08-12T15:22:36.994Z,28.49
2022-08-12T15:26:20.563Z,28.25
2022-08-12T15:30:30.650Z,28.31
2022-08-12T15:34:39.145Z,28.43
2022-08-12T15:38:47.105Z,28.60
2022-08-12T15:42:57.612Z,28.68
2022-08-12T15:47:06.339Z,28.68
2022-08-12T15:51:14.103Z,28.60
2022-08-12T15:55:24.568Z,28.26
2022-08-12T16:00:00.099Z,27.87
2022-08-12T16:04:13.926Z,27.51
2022-08-12T16:08:27.658Z,27.34
2022-08-12T16:12:35.710Z,27.15
2022-08-12T16:16:48.625Z,27.02
2022-08-12T16:20:56.974Z,26.95
2022-08-12T16:25:07.081Z,27.00
2022-08-12T16:29:38.655Z,27.08
2022-08-12T16:34:01.046Z,27.18
2022-08-12T16:38:27.914Z,27.23
2022-08-12T16:42:53.223Z,27.33
2022-08-12T16:47:03.213Z,27.42
2022-08-12T16:51:13.393Z,27.42
2022-08-12T16:55:21.992Z,27.45
2022-08-12T16:59:54.340Z,27.44
2022-08-12T17:04:08.688Z,27.43
2022-08-12T17:08:21.478Z,27.34
2022-08-12T17:12:38.288Z,27.29
2022-08-12T17:16:46.079Z,27.21
2022-08-12T17:20:56.753Z,27.11
2022-08-12T17:25:10.350Z,27.02
2022-08-12T17:30:00.259Z,26.95
2022-08-12T17:33:55.584Z,26.89
2022-08-12T17:38:11.735Z,26.82
2022-08-12T17:42:32.902Z,26.68
2022-08-12T17:46:42.776Z,26.58
2022-08-12T17:50:51.985Z,26.48
2022-08-12T17:55:01.435Z,26.38
2022-08-12T17:59:12.740Z,26.25
2022-08-12T18:03:57.543Z,26.11
2022-08-12T18:07:50.293Z,25.90
2022-08-12T18:12:17.239Z,25.72
2022-08-12T18:16:34.995Z,25.53
2022-08-12T18:20:44.872Z,25.38
2022-08-12T18:25:00.800Z,25.24
2022-08-12T18:29:15.806Z,25.11
2022-08-12T18:33:26.150Z,24.99
2022-08-12T18:37:42.356Z,24.87
2022-08-12T18:41:52.018Z,24.78
2022-08-12T18:46:13.390Z,24.63
2022-08-12T18:50:24.839Z,24.52
2022-08-12T18:54:36.229Z,24.39
2022-08-12T18:58:59.424Z,24.27
2022-08-12T19:03:39.207Z,24.18
2022-08-12T19:07:49.651Z,24.05
2022-08-12T19:12:24.481Z,23.93
2022-08-12T19:16:39.543Z,23.81
2022-08-12T19:20:48.234Z,23.72
2022-08-12T19:25:16.819Z,23.63
2022-08-12T19:29:26.191Z,23.53
2022-08-12T19:33:37.387Z,23.45
2022-08-12T19:38:03.748Z,23.37
2022-08-12T19:42:14.661Z,23.30
2022-08-12T19:46:27.917Z,23.21
2022-08-12T19:50:43.058Z,23.13
2022-08-12T19:54:56.266Z,23.02
2022-08-12T19:59:23.924Z,22.87
2022-08-12T20:03:38.348Z,22.78
2022-08-12T20:07:59.245Z,22.71
2022-08-12T20:12:13.651Z,22.62
2022-08-12T20:16:51.161Z,22.52
2022-08-12T20:20:56.968Z,22.39
2022-08-12T20:25:10.624Z,22.28
2022-08-12T20:29:21.614Z,22.21
2022-08-12T20:33:50.983Z,22.06
2022-08-12T20:38:07.297Z,21.83
2022-08-12T20:42:25.869Z,21.71
2022-08-12T20:46:39.417Z,21.61
2022-08-12T20:50:53.398Z,21.50
2022-08-12T20:55:03.148Z,21.41
2022-08-12T20:59:14.671Z,21.31
2022-08-12T21:03:52.486Z,21.16
2022-08-12T21:08:11.868Z,21.01
2022-08-12T21:12:27.834Z,20.96
2022-08-12T21:16:39.053Z,20.92
2022-08-12T21:20:48.312Z,20.86
2022-08-12T21:24:56.369Z,20.81
2022-08-12T21:29:04.401Z,20.73
2022-08-12T21:33:14.811Z,20.63
2022-08-12T21:37:27.685Z,20.59
2022-08-12T21:41:37.920Z,20.55
2022-08-12T21:46:00.998Z,20.49
2022-08-12T21:50:11.830Z,20.42
2022-08-12T21:54:23.161Z,20.37
2022-08-12T21:58:30.784Z,20.36
2022-08-12T22:02:57.347Z,20.39
2022-08-12T22:07:06.935Z,20.44
2022-08-12T22:11:14.939Z,20.43
2022-08-12T22:15:31.489Z,20.45
2022-08-12T22:19:40.509Z,20.49
2022-08-12T22:23:51.802Z,20.52
2022-08-12T22:28:29.529Z,20.51
2022-08-12T22:32:49.896Z,20.47
2022-08-12T22:36:58.987Z,20.34
2022-08-12T22:41:31.210Z,20.28
2022-08-12T22:45:59.032Z,20.23
2022-08-12T22:50:10.873Z,20.19
2022-08-12T22:54:37.851Z,20.15
2022-08-12T22:59:04.964Z,20.07
2022-08-12T23:03:48.678Z,19.96
2022-08-12T23:07:59.731Z,19.87
2022-08-12T23:12:09.512Z,19.82
2022-08-12T23:16:33.459Z,19.81
2022-08-12T23:20:41.295Z,19.80
2022-08-12T23:24:56.386Z,19.77
2022-08-12T23:29:29.599Z,19.77
2022-08-12T23:34:01.471Z,19.78
2022-08-12T23:38:05.387Z,19.79
2022-08-12T23:42:16.806Z,19.77
2022-08-12T23:46:27.385Z,19.72
2022-08-12T23:50:35.120Z,19.69
2022-08-12T23:54:46.489Z,19.67
2022-08-12T23:59:07.827Z,19.65
